createdAt,value
2023-01-13T00:05:38.617Z,98874.64
2023-01-13T00:11:55.835Z,98869.98
2023-01-13T00:18:24.777Z,98865.48
2023-01-13T00:24:39.561Z,98865.83
2023-01-13T00:30:59.552Z,98865.92
2023-01-13T00:37:04.228Z,98864.77
2023-01-13T00:43:22.385Z,98859.00
2023-01-13T00:49:49.682Z,98862.30
2023-01-13T00:56:24.425Z,98861.38
2023-01-13T01:02:55.698Z,98856.38
2023-01-13T01:10:03.910Z,98853.64
2023-01-13T01:16:40.951Z,98847.48
2023-01-13T01:28:59.905Z,98837.41
2023-01-13T01:35:07.548Z,98830.95
2023-01-13T01:41:36.966Z,98822.75
2023-01-13T01:48:29.066Z,98816.90
2023-01-13T02:01:28.465Z,98810.17
2023-01-13T02:15:13.053Z,98798.20
2023-01-13T02:43:25.258Z,98772.23
2023-01-13T02:55:48.389Z,98767.21
2023-01-13T03:07:56.752Z,98753.62
2023-01-13T03:21:39.762Z,98742.10
2023-01-13T03:28:28.956Z,98735.91
2023-01-13T03:35:33.936Z,98732.70
2023-01-13T03:56:41.221Z,98724.27
2023-01-13T04:03:31.663Z,98727.63
2023-01-13T04:09:28.005Z,98725.38
2023-01-13T04:37:07.933Z,98708.29
2023-01-13T04:44:02.789Z,98713.20
2023-01-13T04:56:20.690Z,98714.60
2023-01-13T05:02:23.106Z,98716.52
2023-01-13T05:15:51.002Z,98724.30
2023-01-13T05:26:19.621Z,98725.91
2023-01-13T05:36:55.937Z,98721.17
2023-01-13T06:06:37.841Z,98718.45
2023-01-13T06:39:15.148Z,98728.48
2023-01-13T06:41:44.831Z,98732.67
2023-01-13T06:48:03.778Z,98732.43
2023-01-13T07:22:34.231Z,98737.29
2023-01-13T07:52:09.409Z,98735.96
2023-01-13T07:57:13.987Z,98737.95
2023-01-13T08:24:59.221Z,98729.80
2023-01-13T08:30:56.796Z,98722.15
2023-01-13T08:36:13.039Z,98717.14
2023-01-13T08:41:40.231Z,98722.66
2023-01-13T08:48:04.484Z,98726.33
2023-01-13T08:53:38.632Z,98722.19
2023-01-13T08:59:32.523Z,98721.31
2023-01-13T09:05:09.593Z,98721.11
2023-01-13T09:10:56.511Z,98721.66
2023-01-13T09:16:42.384Z,98717.05
2023-01-13T09:23:09.868Z,98722.80
2023-01-13T09:29:08.393Z,98716.09
2023-01-13T09:35:18.114Z,98713.14
2023-01-13T09:40:58.587Z,98704.87
2023-01-13T09:47:05.139Z,98699.37
2023-01-13T09:52:58.122Z,98691.54
2023-01-13T09:59:23.535Z,98685.56
2023-01-13T10:04:50.953Z,98679.89
2023-01-13T10:10:32.320Z,98672.86
2023-01-13T10:17:12.405Z,98669.46
2023-01-13T10:23:44.279Z,98669.67
2023-01-13T10:30:24.756Z,98663.07
2023-01-13T10:37:08.663Z,98659.34
2023-01-13T10:42:49.531Z,98650.58
2023-01-13T10:49:20.879Z,98643.69
2023-01-13T10:55:07.698Z,98633.73
2023-01-13T11:00:48.140Z,98626.20
2023-01-13T11:07:28.299Z,98625.70
2023-01-13T11:12:58.604Z,98618.49
2023-01-13T11:19:31.655Z,98612.00
2023-01-13T11:25:38.859Z,98600.00
2023-01-13T11:39:39.632Z,98587.60
2023-01-13T11:46:10.539Z,98584.89
2023-01-13T13:06:34.761Z,98556.77
2023-01-13T13:12:44.674Z,98559.70
2023-01-13T13:18:46.160Z,98564.06
2023-01-13T13:24:56.849Z,98570.05
2023-01-13T13:30:57.688Z,98570.35
2023-01-13T13:36:48.436Z,98571.65
2023-01-13T13:43:14.813Z,98571.74
2023-01-13T13:48:55.512Z,98580.09
2023-01-13T13:55:02.559Z,98580.34
2023-01-13T14:01:17.202Z,98588.39
2023-01-13T14:13:57.418Z,98594.85
2023-01-13T14:20:09.467Z,98600.23
2023-01-13T14:26:35.667Z,98603.95
2023-01-13T14:32:05.392Z,98599.77
2023-01-13T14:38:33.592Z,98607.53
2023-01-13T14:44:04.142Z,98610.31
2023-01-13T14:55:16.161Z,98608.64
2023-01-13T15:01:19.693Z,98609.63
2023-01-13T15:07:49.484Z,98609.09
2023-01-13T15:12:58.086Z,98614.16
2023-01-13T15:19:04.033Z,98621.53
2023-01-13T15:25:21.409Z,98619.39
2023-01-13T15:31:47.971Z,98618.85
2023-01-13T15:37:26.218Z,98616.13
2023-01-13T15:43:33.307Z,98617.97
2023-01-13T15:49:22.112Z,98617.19
2023-01-13T16:02:12.029Z,98616.09
2023-01-13T16:09:05.364Z,98622.11
2023-01-13T16:15:28.050Z,98622.91
2023-01-13T16:29:32.351Z,98629.44
2023-01-13T16:42:24.148Z,98648.75
2023-01-13T16:56:31.455Z,98649.83
2023-01-13T17:03:04.305Z,98654.05
2023-01-13T17:16:27.077Z,98660.70
2023-01-13T17:34:57.452Z,98670.05
2023-01-13T17:40:31.044Z,98673.55
2023-01-13T17:45:46.916Z,98669.12
2023-01-13T17:55:40.269Z,98672.52
2023-01-13T18:00:57.108Z,98680.42
2023-01-13T18:06:18.178Z,98677.72
2023-01-13T18:12:14.971Z,98676.13
2023-01-13T18:17:19.196Z,98679.98
2023-01-13T18:22:52.593Z,98686.86
2023-01-13T18:29:16.585Z,98692.66
2023-01-13T18:35:04.707Z,98690.86
2023-01-13T18:41:45.752Z,98685.45
2023-01-13T18:47:20.446Z,98690.27
2023-01-13T19:56:17.663Z,98792.11
2023-01-13T20:03:44.400Z,98806.84
2023-01-13T20:08:33.923Z,98828.38
2023-01-13T20:14:04.852Z,98834.45
2023-01-13T20:19:14.496Z,98839.26
2023-01-13T20:25:20.409Z,98839.16
2023-01-13T20:31:21.133Z,98848.27
2023-01-13T20:37:03.016Z,98860.57
2023-01-13T20:42:29.703Z,98864.66
2023-01-13T20:49:30.637Z,98872.81
2023-01-13T20:54:58.596Z,98880.71
2023-01-13T21:01:11.892Z,98882.64
2023-01-13T21:07:10.087Z,98890.95
2023-01-13T21:14:14.031Z,98887.90
2023-01-13T21:19:21.703Z,98891.58
2023-01-13T21:25:53.674Z,98901.70
2023-01-13T21:32:30.720Z,98898.80
2023-01-13T21:38:08.126Z,98904.48
2023-01-13T21:44:24.975Z,98908.48
2023-01-13T21:50:45.059Z,98916.33
2023-01-13T21:56:27.692Z,98923.98
2023-01-13T22:03:32.614Z,98925.98
2023-01-13T22:09:48.119Z,98923.76
2023-01-13T22:14:57.184Z,98923.92
2023-01-13T22:33:28.445Z,98940.73
2023-01-13T22:40:09.444Z,98941.58
2023-01-13T22:52:30.754Z,98952.13
2023-01-13T22:58:52.128Z,98953.11
2023-01-13T23:05:10.512Z,98947.14
2023-01-13T23:10:41.856Z,98951.48
2023-01-13T23:16:56.152Z,98949.91
2023-01-13T23:23:19.954Z,98961.23
2023-01-13T23:31:22.509Z,98961.35
2023-01-13T23:38:27.087Z,98960.13
2023-01-13T23:43:20.423Z,98959.02
2023-01-13T23:55:18.105Z,98962.16
